Latest Weather Observations for Gingin Airport

IDW60801

Issued at 2:01 pm WST Sunday 1 May 2016 (issued every 30 minutes, with the page automatically refreshed every 10 minutes)

About weather observations | Map of weather stations | Latest weather observations for WA | Other Formats
Station Details ID: 009178 Name: GINGIN AERO Lat: -31.46 Lon: 115.86 Height: 73.0 m
Data from the previous 72 hours. | See also: Recent months at Gingin Airport
Date/Time
WST
Temp
°C
App
Temp
°C
Dew
Point
Rel
Hum
%
Delta-T
°C
Wind Press
QNH
hPa
Press
MSL
hPa
Rain
since 9 am
mm
Dir
 
Spd
km/h
Gust
km/h
Spd
kts
Gust
kts
01/02:00pm 18.5 14.6 7.3 48 5.7 SSW 17 22 9 12 1021.1 1021.0 0.0
01/01:30pm 18.6 15.5 7.1 47 5.8 SSE 13 20 7 11 1021.1 1021.0 0.0
01/01:00pm 18.7 15.3 7.5 48 5.7 SE 15 20 8 11 1021.6 1021.5 0.0
01/12:30pm 18.9 15.4 7.4 47 5.9 SSE 15 24 8 13 1022.1 1022.0 0.0
01/12:00pm 18.8 15.7 7.3 47 5.8 S 13 20 7 11 1022.7 1022.6 0.0
01/11:30am 18.2 15.0 6.7 47 5.7 SE 13 24 7 13 1023.1 1023.0 0.0
01/11:00am 17.9 14.7 6.7 48 5.6 ESE 13 22 7 12 1023.3 1023.2 0.0
01/10:30am 17.1 13.5 6.6 50 5.2 ESE 15 20 8 11 1023.5 1023.4 0.0
01/10:00am 16.9 14.0 6.7 51 5.0 SE 11 15 6 8 1023.8 1023.7 0.0
01/09:30am 16.3 13.5 7.0 54 4.6 ENE 11 17 6 9 1023.6 1023.5 0.0
01/09:00am 15.5 12.6 8.3 62 3.6 E 13 19 7 10 1023.5 1023.4 0.0
01/08:30am 14.2 11.5 8.8 70 2.7 E 13 17 7 9 1023.4 1023.3 0.0
01/08:00am 12.7 10.8 9.2 79 1.8 ENE 9 13 5 7 1022.8 1022.7 0.0
01/07:30am 12.4 10.5 9.1 80 1.7 E 9 11 5 6 1022.6 1022.4 0.0
01/07:00am 11.5 9.6 9.1 85 1.2 E 9 11 5 6 1022.4 1022.2 0.0
01/06:30am 11.8 9.8 8.8 82 1.5 ESE 9 11 5 6 1022.3 1022.1 0.0
01/06:00am 11.8 10.3 9.0 83 1.4 ESE 7 9 4 5 1022.2 1022.0 0.0
01/05:30am 11.6 9.7 9.2 85 1.2 E 9 11 5 6 1022.0 1021.8 0.0
01/05:00am 11.4 9.1 9.0 85 1.2 ESE 11 13 6 7 1021.8 1021.6 0.0
01/04:30am 11.2 9.3 8.9 86 1.1 ESE 9 11 5 6 1021.7 1021.5 0.0
01/04:00am 11.1 10.8 8.7 85 1.2 CALM 0 6 0 3 1021.7 1021.5 0.0
01/03:30am 11.1 9.5 8.8 86 1.1 ESE 7 9 4 5 1021.6 1021.4 0.0
01/03:00am 11.4 9.4 8.8 84 1.3 ESE 9 11 5 6 1021.6 1021.4 0.0
01/02:30am 11.6 10.0 8.8 83 1.4 ESE 7 9 4 5 1021.8 1021.6 0.0
01/02:00am 11.7 10.3 8.7 82 1.5 SE 6 7 3 4 1021.8 1021.6 0.0
01/01:30am 12.0 10.5 9.0 82 1.5 SSW 7 11 4 6 1021.8 1021.6 0.0
01/01:00am 11.6 9.6 8.8 83 1.4 S 9 13 5 7 1021.7 1021.5 0.0
01/12:30am 11.9 9.2 9.1 83 1.4 E 13 13 7 7 1021.5 1021.3 0.0
01/12:00am 11.9 9.6 9.1 83 1.4 E 11 13 6 7 1021.8 1021.6 0.0
 
Date/Time
WST
Temp
°C
App
Temp
°C
Dew
Point
Rel
Hum
%
Delta-T
°C
Wind Press
QNH
hPa
Press
MSL
hPa
Rain
since 9 am
mm
Dir
 
Spd
km/h
Gust
km/h
Spd
kts
Gust
kts
30/11:30pm 11.4 9.1 9.1 86 1.2 E 11 15 6 8 1021.8 1021.6 0.0
30/11:00pm 11.1 8.4 8.8 86 1.1 E 13 13 7 7 1021.9 1021.7 0.0
30/10:30pm 11.7 11.0 8.7 82 1.5 SE 2 6 1 3 1022.0 1021.8 0.0
30/10:00pm 12.2 10.3 8.9 80 1.6 SE 9 11 5 6 1022.2 1022.0 0.0
30/09:30pm 12.0 10.0 8.7 80 1.6 SE 9 9 5 5 1022.1 1021.9 0.0
30/09:00pm 12.6 11.2 8.7 77 1.9 SE 6 7 3 4 1022.1 1021.9 0.0
30/08:30pm 12.6 11.6 8.7 77 2.0 SSW 4 7 2 4 1022.0 1021.8 0.0
30/08:00pm 13.3 11.3 8.8 74 2.3 SSW 9 11 5 6 1021.8 1021.6 0.0
30/07:30pm 13.8 11.4 8.8 72 2.5 SSW 11 11 6 6 1021.5 1021.3 0.0
30/07:00pm 14.8 12.4 8.7 67 3.1 S 11 13 6 7 1021.2 1021.0 0.0
30/06:30pm 15.4 13.8 8.6 64 3.5 S 7 9 4 5 1021.0 1020.8 0.0
30/06:00pm 15.8 12.9 8.3 61 3.8 SSW 13 17 7 9 1020.6 1020.4 0.0
30/05:30pm 16.3 14.0 7.3 55 4.5 SSE 9 13 5 7 1020.4 1020.2 0.0
30/05:00pm 17.6 14.5 7.4 51 5.1 S 13 17 7 9 1020.3 1020.1 0.0
30/04:30pm 18.0 14.5 7.1 49 5.5 SE 15 20 8 11 1020.2 1020.0 0.0
30/04:00pm 18.3 15.5 6.8 47 5.7 S 11 15 6 8 1020.1 1019.9 0.0
30/03:30pm 17.9 14.2 6.1 46 5.8 S 15 20 8 11 1020.1 1019.9 0.0
30/03:00pm 17.8 14.9 6.3 47 5.7 SE 11 17 6 9 1019.9 1019.7 0.0
30/02:30pm 17.9 14.7 6.7 48 5.6 SSE 13 24 7 13 1019.8 1019.6 0.0
30/02:00pm 17.9 14.5 6.1 46 5.8 SSE 13 22 7 12 1020.0 1019.8 0.0
30/01:30pm 17.5 14.2 6.4 48 5.5 SSE 13 20 7 11 1020.2 1020.0 0.0
30/01:00pm 17.4 14.5 6.6 49 5.3 S 11 19 6 10 1020.4 1020.2 0.0
30/12:30pm 17.2 14.0 7.0 51 5.1 SE 13 20 7 11 1020.7 1020.5 0.0
30/12:00pm 17.2 13.4 7.5 53 4.9 SSE 17 22 9 12 1021.0 1020.8 0.0
30/11:30am 16.4 13.6 8.4 59 4.1 SE 13 19 7 10 1021.4 1021.2 0.0
30/11:00am 15.7 12.3 7.5 58 4.1 SE 15 19 8 10 1021.4 1021.2 0.0
30/10:30am 15.5 13.5 8.5 63 3.6 E 9 13 5 7 1021.4 1021.2 0.0
30/10:00am 14.6 11.7 8.3 66 3.2 E 13 19 7 10 1021.5 1021.3 0.0
30/09:30am 14.3 11.3 9.3 72 2.6 ESE 15 19 8 10 1021.5 1021.3 0.0
30/09:00am 13.7 11.5 9.4 75 2.2 E 11 15 6 8 1021.3 1021.1 3.6
30/08:30am 13.3 11.3 10.3 82 1.6 ENE 11 15 6 8 1020.9 1020.7 3.6
30/08:00am 12.8 11.8 10.9 88 1.0 E 7 9 4 5 1020.5 1020.3 3.6
30/07:30am 12.1 11.6 10.7 91 0.7 E 4 6 2 3 1019.9 1019.7 3.6
30/07:00am 11.7 10.7 10.4 92 0.7 ESE 6 7 3 4 1019.5 1019.3 3.6
30/06:30am 11.7 10.8 10.8 94 0.5 ESE 6 7 3 4 1019.2 1019.0 3.6
30/06:00am 11.8 11.0 11.2 96 0.3 SE 6 7 3 4 1019.0 1018.8 3.6
30/05:30am 11.9 11.2 11.3 96 0.3 ESE 6 9 3 5 1018.7 1018.5 3.6
30/05:00am 11.7 10.6 10.8 94 0.5 SE 7 9 4 5 1018.3 1018.1 3.6
30/04:30am 12.4 11.2 11.5 94 0.5 SE 9 11 5 6 1018.0 1017.8 3.6
30/04:00am 12.6 11.4 11.5 93 0.6 SE 9 9 5 5 1017.6 1017.4 3.6
30/03:30am 13.2 11.7 11.9 92 0.7 SSE 11 15 6 8 1017.4 1017.2 3.6
30/03:00am 13.5 11.3 12.2 92 0.7 SSE 15 20 8 11 1017.5 1017.3 3.6
30/02:30am 14.1 12.2 13.1 94 0.6 SE 15 20 8 11 1017.0 1016.9 3.6
30/02:00am 14.7 13.5 13.9 95 0.4 S 13 17 7 9 1016.9 1016.7 3.6
30/01:30am 15.0 14.7 14.5 97 0.3 SW 9 11 5 6 1016.8 1016.6 3.6
30/01:00am 14.9 16.2 14.1 95 0.5 CALM 0 6 0 3 1016.3 1016.1 3.2
30/12:30am 15.0 14.6 14.2 95 0.5 SW 9 15 5 8 1016.5 1016.3 3.2
30/12:00am 14.9 13.2 13.6 92 0.7 SW 15 22 8 12 1016.4 1016.2 2.6
 
Date/Time
WST
Temp
°C
App
Temp
°C
Dew
Point
Rel
Hum
%
Delta-T
°C
Wind Press
QNH
hPa
Press
MSL
hPa
Rain
since 9 am
mm
Dir
 
Spd
km/h
Gust
km/h
Spd
kts
Gust
kts
29/11:30pm 15.4 14.8 14.6 95 0.5 SW 11 15 6 8 1016.5 1016.3 2.4
29/11:00pm 15.8 14.0 14.5 92 0.7 SSW 17 22 9 12 1016.4 1016.2 1.4
29/10:30pm 16.0 14.4 14.0 88 1.1 SW 15 19 8 10 1016.5 1016.3 1.2
29/10:00pm 15.9 11.8 13.7 87 1.2 SW 28 37 15 20 1016.3 1016.1 1.2
29/09:38pm 16.9 14.1 14.4 85 1.4 WSW 22 39 12 21 1016.2 1016.0 0.8
29/09:30pm 16.8 15.6 12.7 77 2.3 WNW 11 19 6 10 1016.0 1015.8 0.8
29/09:00pm 16.2 14.2 11.4 73 2.6 WNW 13 17 7 9 1016.0 1015.8 0.6
29/08:30pm 16.1 14.2 11.7 75 2.4 W 13 17 7 9 1016.0 1015.8 0.6
29/08:00pm 16.6 14.7 11.7 73 2.7 W 13 15 7 8 1016.0 1015.8 0.6
29/07:30pm 17.0 14.3 11.7 71 2.9 W 17 24 9 13 1016.1 1015.9 0.6
29/07:00pm 17.2 14.4 11.2 68 3.2 W 17 24 9 13 1016.0 1015.8 0.6
29/06:30pm 17.0 14.7 11.7 71 2.9 W 15 19 8 10 1015.6 1015.4 0.6
29/06:00pm 17.6 15.3 11.6 68 3.3 W 15 24 8 13 1015.4 1015.2 0.6
29/05:30pm 18.0 15.7 11.8 67 3.4 W 15 22 8 12 1015.4 1015.2 0.6
29/05:00pm 18.6 14.5 11.4 63 3.9 W 24 35 13 19 1015.4 1015.2 0.6
29/04:30pm 19.1 15.0 11.4 61 4.2 WSW 24 35 13 19 1015.3 1015.1 0.6
29/04:00pm 19.5 14.4 12.0 62 4.2 W 30 44 16 24 1015.3 1015.1 0.6
29/03:30pm 19.8 14.5 11.3 58 4.7 W 30 43 16 23 1015.3 1015.1 0.6
29/03:00pm 19.8 14.3 11.8 60 4.4 W 32 43 17 23 1015.2 1015.0 0.6
29/02:30pm 19.7 15.0 12.0 61 4.3 W 28 39 15 21 1015.1 1014.9 0.6
29/02:00pm 19.8 15.4 10.5 55 5.0 W 24 33 13 18 1015.0 1014.8 0.6
29/01:36pm 19.2 14.6 12.2 64 3.9 WSW 28 46 15 25 1015.2 1015.0 0.6
29/01:30pm 19.5 15.9 13.2 67 3.6 WSW 24 30 13 16 1015.2 1015.0 0.6
29/01:00pm 19.4 15.2 13.6 69 3.3 WSW 28 37 15 20 1015.4 1015.2 0.6
29/12:30pm 20.4 15.4 12.1 59 4.7 W 30 41 16 22 1015.6 1015.4 0.6
29/12:15pm 20.6 15.8 11.8 57 4.9 W 28 46 15 25 1015.6 1015.4 0.6
29/12:00pm 20.6 16.8 14.7 69 3.5 W 28 35 15 19 1015.7 1015.5 0.6
29/11:30am 19.4 16.4 13.8 70 3.2 W 22 30 12 16 1016.1 1015.9 0.6
29/11:00am 18.4 17.9 16.0 86 1.4 WNW 13 17 7 9 1016.5 1016.3 0.6
29/10:30am 16.4 15.5 14.9 91 0.9 WNW 13 19 7 10 1016.9 1016.7 0.6
29/10:00am 16.8 13.8 15.8 94 0.6 WSW 26 39 14 21 1017.0 1016.9 0.4
29/09:51am 17.1 15.0 15.3 89 1.1 W 20 39 11 21 1017.0 1016.9 0.4
29/09:30am 18.4 18.0 15.1 81 1.9 WNW 11 17 6 9 1016.8 1016.6 0.0
29/09:00am 16.4 14.8 14.9 91 0.9 WSW 17 26 9 14 1017.0 1016.9 6.6
29/08:30am 16.1 15.1 14.6 91 0.9 NW 13 17 7 9 1016.6 1016.4 6.6
29/08:00am 14.7 13.8 13.7 94 0.6 NNW 11 13 6 7 1016.4 1016.2 6.6
29/07:30am 13.9 13.2 13.1 95 0.4 N 9 11 5 6 1016.3 1016.1 6.6
29/07:00am 13.7 12.5 12.8 94 0.5 N 11 15 6 8 1016.2 1016.0 6.6
29/06:30am 13.5 12.7 12.9 96 0.3 NNW 9 13 5 7 1016.0 1015.8 6.6
29/06:00am 12.7 11.6 11.8 94 0.5 NNW 9 11 5 6 1016.0 1015.8 6.6
29/05:30am 13.1 12.0 12.0 93 0.6 NNW 9 11 5 6 1015.9 1015.7 6.6
29/05:00am 12.9 11.8 11.8 93 0.6 NNW 9 11 5 6 1015.8 1015.6 6.6
29/04:30am 12.9 10.9 11.6 92 0.7 NNW 13 17 7 9 1015.8 1015.6 6.6
29/04:00am 12.2 10.9 11.4 95 0.4 N 9 9 5 5 1015.7 1015.5 6.4
29/03:30am 12.1 11.2 11.3 95 0.4 NNW 7 9 4 5 1015.8 1015.6 6.4
29/03:00am 11.8 10.5 11.2 96 0.3 NNW 9 11 5 6 1016.0 1015.8 6.4
29/02:30am 11.7 11.3 11.2 97 0.3 N 4 11 2 6 1016.0 1015.8 6.4
29/02:00am 11.3 11.2 10.8 97 0.3 N 2 6 1 3 1016.1 1015.9 6.4
29/01:30am 10.8 10.1 10.2 96 0.3 N 4 9 2 5 1016.0 1015.8 6.4
29/01:00am 11.1 11.3 10.5 96 0.3 CALM 0 0 0 0 1015.9 1015.7 6.4
29/12:30am 11.0 9.8 10.2 95 0.4 N 7 9 4 5 1016.0 1015.8 6.4
29/12:00am 11.6 10.5 10.7 94 0.5 N 7 9 4 5 1016.4 1016.2 6.4
 
Date/Time
WST
Temp
°C
App
Temp
°C
Dew
Point
Rel
Hum
%
Delta-T
°C
Wind Press
QNH
hPa
Press
MSL
hPa
Rain
since 9 am
mm
Dir
 
Spd
km/h
Gust
km/h
Spd
kts
Gust
kts
28/11:30pm 12.5 11.9 11.6 94 0.5 NNW 6 11 3 6 1016.5 1016.3 6.4
28/11:00pm 12.8 11.3 11.9 94 0.5 NNW 11 13 6 7 1016.4 1016.2 6.4
28/10:30pm 13.2 12.5 12.1 93 0.6 WNW 7 9 4 5 1016.5 1016.3 6.4
28/10:00pm 13.8 13.0 12.9 94 0.5 WSW 9 15 5 8 1016.3 1016.1 6.4
28/09:30pm 13.2 12.1 12.1 93 0.6 WNW 9 9 5 5 1016.3 1016.1 6.4
28/09:00pm 13.6 13.2 12.5 93 0.6 NNW 6 7 3 4 1016.3 1016.1 6.4
28/08:30pm 14.3 13.9 13.0 92 0.7 NNW 7 9 4 5 1016.4 1016.2 6.4
28/08:00pm 14.7 14.0 13.1 90 0.9 W 9 11 5 6 1016.2 1016.0 6.4
28/07:30pm 15.6 15.0 13.6 88 1.1 W 9 11 5 6 1016.1 1015.9 6.4
28/07:00pm 16.0 15.3 14.4 90 0.9 WSW 11 15 6 8 1015.9 1015.7 6.4
28/06:30pm 16.2 16.6 15.2 94 0.6 WNW 7 11 4 6 1015.5 1015.3 6.4
28/06:00pm 16.4 16.0 15.3 93 0.6 WSW 11 17 6 9 1015.1 1014.9 6.2
28/05:30pm 16.4 16.1 15.4 94 0.6 W 11 15 6 8 1014.8 1014.6 6.2
28/05:00pm 16.8 14.9 15.7 93 0.6 WSW 20 28 11 15 1014.7 1014.5 6.2
28/04:30pm 16.5 15.8 15.5 94 0.6 W 13 20 7 11 1014.5 1014.3 5.4
28/04:00pm 16.5 14.4 15.2 92 0.8 WSW 20 30 11 16 1014.7 1014.5 4.8
28/03:39pm 17.6 14.0 15.2 86 1.4 W 28 50 15 27 1014.6 1014.4 3.4
28/03:30pm 19.5 15.2 13.2 67 3.6 W 28 43 15 23 1014.2 1014.0 3.0
28/03:29pm 19.5 15.1 13.0 66 3.7 W 28 43 15 23 1014.2 1014.0 3.0
28/03:00pm 18.8 17.0 14.5 76 2.5 W 17 24 9 13 1014.3 1014.1 3.0
28/02:30pm 17.2 14.5 14.7 85 1.4 W 22 30 12 16 1014.4 1014.2 2.8

Other Formats:

Comma delimited format used in spreadsheet applications
http://www.bom.gov.au/fwo/IDW60801/IDW60801.95612.axf

JavaScript Object Notation format (JSON) in row-major order
http://www.bom.gov.au/fwo/IDW60801/IDW60801.95612.json